Time;durP1;ratioP1;P1;durP2;ratioP2;P2;SDS_P1;SDS_P2;PMS_P1;PMS_P2;Temp;Humidity;BMP_temperature;BMP_pressure;BME280_temperature;BME280_humidity;BME280_pressure;Samples;Min_cycle;Max_cycle;Signal;HPM_P1;HPM_P2
2024/02/12 00:00:18;;;;;;;2.70;2.50;;;;;;;7.66;100.00;97002.77;109399;1253;61234;-79
2024/02/12 00:03:04;;;;;;;3.50;2.70;;;;;;;7.66;100.00;97004.60;109126;1253;65546;-78
2024/02/12 00:05:36;;;;;;;2.40;2.20;;;;;;;7.65;100.00;97002.91;109384;1253;59000;-79
2024/02/12 00:08:07;;;;;;;2.40;2.20;;;;;;;7.63;100.00;97006.23;109425;1254;59024;-79
2024/02/12 00:10:34;;;;;;;2.50;2.30;;;;;;;7.63;100.00;97011.75;109407;1253;67219;-79
2024/02/12 00:13:01;;;;;;;2.50;2.20;;;;;;;7.61;100.00;97011.34;109403;1253;60070;-79
2024/02/12 00:15:27;;;;;;;2.70;2.50;;;;;;;7.61;100.00;97011.37;109398;1253;65015;-79
2024/02/12 00:17:57;;;;;;;2.40;2.20;;;;;;;7.60;100.00;97016.42;109381;1253;60358;-79
2024/02/12 00:20:23;;;;;;;3.00;2.00;;;;;;;7.57;100.00;97014.93;109319;1253;59016;-79
2024/02/12 00:22:50;;;;;;;2.60;2.10;;;;;;;7.54;100.00;97018.13;109354;1254;67038;-79
2024/02/12 00:25:17;;;;;;;2.30;2.10;;;;;;;7.52;100.00;97021.89;109407;1253;60215;-79
2024/02/12 00:27:44;;;;;;;2.20;2.00;;;;;;;7.50;100.00;97027.38;109372;1253;72974;-79
2024/02/12 00:30:12;;;;;;;2.90;2.40;;;;;;;7.47;100.00;97024.21;109091;1253;58987;-78
2024/02/12 00:32:38;;;;;;;2.80;2.20;;;;;;;7.44;100.00;97027.30;109084;1253;59076;-79
2024/02/12 00:35:05;;;;;;;2.40;2.20;;;;;;;7.40;100.00;97031.52;109381;1253;66984;-78
2024/02/12 00:37:34;;;;;;;2.70;2.20;;;;;;;7.37;100.00;97031.83;109374;1253;60085;-78
2024/02/12 00:40:08;;;;;;;2.40;2.20;;;;;;;7.33;100.00;97033.02;109388;1253;64994;-78
2024/02/12 00:42:36;;;;;;;2.30;2.10;;;;;;;7.30;100.00;97033.83;109390;1254;59013;-77
2024/02/12 00:45:06;;;;;;;3.20;2.20;;;;;;;7.29;100.00;97037.64;109283;1253;59110;-79
2024/02/12 00:47:34;;;;;;;2.10;2.00;;;;;;;7.29;100.00;97040.08;109439;1253;66846;-79
2024/02/12 00:50:02;;;;;;;2.60;2.40;;;;;;;7.31;100.00;97040.78;109382;1252;61467;-77
2024/02/12 00:52:28;;;;;;;3.00;2.40;;;;;;;7.34;100.00;97046.40;109385;1254;64131;-78
2024/02/12 00:54:56;;;;;;;2.30;2.10;;;;;;;7.34;100.00;97047.42;109395;1254;59279;-79
2024/02/12 00:57:23;;;;;;;3.20;2.10;;;;;;;7.35;100.00;97047.49;109522;1253;59102;-78
2024/02/12 00:59:50;;;;;;;2.80;2.20;;;;;;;7.37;100.00;97048.42;109107;1252;67121;-78
2024/02/12 01:02:17;;;;;;;2.10;1.70;;;;;;;7.38;100.00;97048.85;109420;1252;61241;-79
2024/02/12 01:04:44;;;;;;;2.30;2.20;;;;;;;7.40;100.00;97050.28;109527;1252;64005;-78
2024/02/12 01:07:10;;;;;;;2.60;2.40;;;;;;;7.40;100.00;97049.05;109418;1252;59085;-79
2024/02/12 01:09:37;;;;;;;2.10;1.80;;;;;;;7.40;100.00;97052.88;109400;1253;59041;-78
2024/02/12 01:12:04;;;;;;;3.10;2.40;;;;;;;7.41;100.00;97053.05;109299;1254;66037;-78
2024/02/12 01:14:30;;;;;;;3.70;2.30;;;;;;;7.41;100.00;97054.81;109388;1252;61063;-79
2024/02/12 01:16:57;;;;;;;5.10;2.10;;;;;;;7.40;100.00;97053.45;109357;1253;65192;-79
2024/02/12 01:19:24;;;;;;;2.40;2.10;;;;;;;7.41;100.00;97050.38;109395;1254;59343;-79
2024/02/12 01:21:51;;;;;;;2.10;2.00;;;;;;;7.42;100.00;97050.28;109363;1252;58980;-79
2024/02/12 01:24:17;;;;;;;2.40;2.10;;;;;;;7.42;100.00;97053.78;109246;1253;67084;-79
2024/02/12 01:26:45;;;;;;;2.80;2.20;;;;;;;7.42;100.00;97052.20;109389;1252;61239;-79
2024/02/12 01:29:13;;;;;;;2.10;1.90;;;;;;;7.42;100.00;97049.73;109380;1252;65255;-79
2024/02/12 01:31:39;;;;;;;2.80;2.40;;;;;;;7.42;100.00;97046.19;109391;1253;58934;-78
2024/02/12 01:34:06;;;;;;;2.50;2.10;;;;;;;7.43;100.00;97046.34;109392;1252;58961;-78
2024/02/12 01:36:33;;;;;;;2.40;1.70;;;;;;;7.44;100.00;97048.71;109409;1254;67106;-79
2024/02/12 01:39:00;;;;;;;1.80;1.60;;;;;;;7.45;100.00;97051.99;109377;1252;60975;-78
2024/02/12 01:41:26;;;;;;;2.20;1.80;;;;;;;7.46;100.00;97051.02;109346;1254;64918;-79
2024/02/12 01:43:53;;;;;;;3.20;1.90;;;;;;;7.47;100.00;97052.16;109362;1253;59040;-78
2024/02/12 01:46:19;;;;;;;1.60;1.50;;;;;;;7.48;100.00;97052.79;109415;1253;59066;-78
2024/02/12 01:48:47;;;;;;;2.30;2.10;;;;;;;7.49;100.00;97052.88;109370;1252;67040;-78
2024/02/12 01:51:15;;;;;;;2.20;2.00;;;;;;;7.50;100.00;97052.64;109263;1252;60093;-79
2024/02/12 01:53:46;;;;;;;1.80;1.70;;;;;;;7.50;100.00;97052.98;109408;1253;63676;-78
2024/02/12 01:56:13;;;;;;;3.40;2.00;;;;;;;7.50;100.00;97054.20;109369;1252;59337;-79
2024/02/12 01:58:41;;;;;;;2.50;1.90;;;;;;;7.50;100.00;97056.67;109381;1252;59367;-79
2024/02/12 02:01:13;;;;;;;1.40;1.30;;;;;;;7.50;100.00;97061.96;109371;1252;66032;-79
2024/02/12 02:03:43;;;;;;;2.40;1.60;;;;;;;7.49;100.00;97061.14;109370;1253;60029;-78
2024/02/12 02:06:16;;;;;;;2.80;1.60;;;;;;;7.48;100.00;97059.10;109392;1252;64027;-79
2024/02/12 02:08:44;;;;;;;1.80;1.40;;;;;;;7.49;100.00;97059.63;109393;1254;59078;-80
2024/02/12 02:11:11;;;;;;;2.00;1.80;;;;;;;7.49;100.00;97058.73;109477;1252;59004;-78
2024/02/12 02:13:42;;;;;;;2.30;1.70;;;;;;;7.48;100.00;97053.11;109521;1252;66752;-79
2024/02/12 02:16:10;;;;;;;1.70;1.60;;;;;;;7.48;100.00;97058.96;109367;1253;60065;-79
2024/02/12 02:18:37;;;;;;;1.60;1.50;;;;;;;7.47;100.00;97061.36;109368;1252;64100;-78
2024/02/12 02:21:05;;;;;;;1.80;1.70;;;;;;;7.46;100.00;97063.69;109100;1252;59012;-79
2024/02/12 02:23:33;;;;;;;1.60;1.50;;;;;;;7.47;100.00;97067.34;109264;1252;58982;-78
2024/02/12 02:26:00;;;;;;;1.80;1.70;;;;;;;7.47;100.00;97066.47;109418;1252;67059;-79
2024/02/12 02:28:27;;;;;;;1.50;1.40;;;;;;;7.47;100.00;97072.33;109387;1252;60650;-78
2024/02/12 02:30:54;;;;;;;2.00;1.80;;;;;;;7.45;100.00;97072.08;109094;1252;62957;-79
2024/02/12 02:33:21;;;;;;;2.00;1.70;;;;;;;7.45;100.00;97073.69;109376;1252;58992;-79
2024/02/12 02:35:48;;;;;;;2.10;1.80;;;;;;;7.45;100.00;97072.81;109397;1252;59039;-77
2024/02/12 02:38:15;;;;;;;2.70;2.00;;;;;;;7.44;100.00;97074.52;109407;1252;65939;-78
2024/02/12 02:40:45;;;;;;;2.50;2.30;;;;;;;7.43;100.00;97070.36;109417;1252;61134;-79
2024/02/12 02:43:11;;;;;;;3.50;1.90;;;;;;;7.41;100.00;97074.39;109378;1253;65950;-78
2024/02/12 02:45:38;;;;;;;2.20;1.70;;;;;;;7.38;100.00;97075.86;109367;1252;58969;-78
2024/02/12 02:48:05;;;;;;;2.10;1.90;;;;;;;7.36;100.00;97073.94;109390;1252;59014;-79
2024/02/12 02:50:33;;;;;;;1.50;1.40;;;;;;;7.32;100.00;97077.63;109415;1252;67322;-80
2024/02/12 02:52:59;;;;;;;2.50;1.60;;;;;;;7.29;100.00;97081.62;109438;1252;61014;-79
2024/02/12 02:55:28;;;;;;;1.90;1.70;;;;;;;7.24;100.00;97077.94;109444;1253;65007;-78
2024/02/12 02:57:55;;;;;;;1.70;1.60;;;;;;;7.20;100.00;97077.42;109449;1252;59010;-79
2024/02/12 03:00:36;;;;;;;2.40;2.20;;;;;;;7.16;100.00;97079.16;109421;1253;59154;-78
2024/02/12 03:03:03;;;;;;;2.00;1.80;;;;;;;7.13;100.00;97080.81;109405;1253;66088;-78
2024/02/12 03:05:34;;;;;;;1.80;1.70;;;;;;;7.11;100.00;97082.92;109408;1252;60224;-79
2024/02/12 03:08:06;;;;;;;1.70;1.60;;;;;;;7.10;100.00;97085.17;109149;1252;65204;-79
2024/02/12 03:10:33;;;;;;;2.90;1.90;;;;;;;7.08;100.00;97088.02;109408;1252;59256;-79
2024/02/12 03:12:59;;;;;;;2.80;2.00;;;;;;;7.05;100.00;97092.79;109404;1252;58973;-78
2024/02/12 03:15:26;;;;;;;1.90;1.70;;;;;;;7.04;100.00;97090.54;109396;1252;67144;-79
2024/02/12 03:17:53;;;;;;;1.80;1.50;;;;;;;7.06;100.00;97096.11;109374;1252;61101;-77
2024/02/12 03:20:21;;;;;;;1.50;1.40;;;;;;;7.06;100.00;97099.80;109394;1252;65039;-78
2024/02/12 03:22:48;;;;;;;3.30;1.70;;;;;;;7.08;100.00;97104.07;109353;1252;59111;-78
2024/02/12 03:25:15;;;;;;;2.60;2.00;;;;;;;7.09;100.00;97103.54;109143;1252;59084;-78
2024/02/12 03:27:43;;;;;;;2.40;1.80;;;;;;;7.12;100.00;97107.38;109392;1252;66964;-79
2024/02/12 03:30:10;;;;;;;2.50;2.10;;;;;;;7.14;100.00;97109.55;109379;1253;61053;-78
2024/02/12 03:32:41;;;;;;;3.70;1.70;;;;;;;7.16;100.00;97108.49;109393;1252;65021;-79
2024/02/12 03:35:08;;;;;;;2.00;1.80;;;;;;;7.18;100.00;97115.17;109380;1252;59899;-78
2024/02/12 03:37:35;;;;;;;2.20;2.00;;;;;;;7.21;100.00;97114.63;109397;1252;59021;-79
2024/02/12 03:40:03;;;;;;;2.00;1.80;;;;;;;7.23;100.00;97118.67;109392;1252;67052;-79
2024/02/12 03:42:30;;;;;;;1.90;1.80;;;;;;;7.24;100.00;97119.80;109302;1252;60080;-78
2024/02/12 03:44:56;;;;;;;1.90;1.70;;;;;;;7.26;100.00;97125.14;109377;1252;65000;-77
2024/02/12 03:47:27;;;;;;;1.90;1.70;;;;;;;7.28;100.00;97129.00;109329;1252;59038;-79
2024/02/12 04:00:57;;;;;;;1.60;1.40;;;;;;;7.37;100.00;97145.27;109376;1252;59076;-79
2024/02/12 04:03:23;;;;;;;2.00;1.60;;;;;;;7.37;100.00;97143.47;109351;1252;58867;-78
2024/02/12 04:05:50;;;;;;;2.00;1.50;;;;;;;7.37;100.00;97145.57;109366;1252;66955;-78
2024/02/12 04:08:16;;;;;;;2.10;1.90;;;;;;;7.37;100.00;97146.27;109099;1253;60150;-78
2024/02/12 04:10:43;;;;;;;2.80;2.00;;;;;;;7.38;100.00;97146.38;109349;1252;65031;-79
2024/02/12 04:13:10;;;;;;;1.50;1.40;;;;;;;7.39;100.00;97150.23;109366;1253;59276;-77
2024/02/12 04:15:41;;;;;;;1.70;1.60;;;;;;;7.39;100.00;97148.64;109379;1252;58927;-78
2024/02/12 04:18:10;;;;;;;1.90;1.70;;;;;;;7.39;100.00;97150.59;109409;1252;66978;-78
2024/02/12 04:20:37;;;;;;;1.70;1.60;;;;;;;7.39;100.00;97155.30;109376;1252;61238;-78
2024/02/12 04:23:06;;;;;;;4.20;1.80;;;;;;;7.39;100.00;97157.94;109081;1252;63914;-79
2024/02/12 04:25:35;;;;;;;1.80;1.70;;;;;;;7.39;100.00;97158.31;109373;1252;59524;-78
2024/02/12 04:28:03;;;;;;;1.90;1.70;;;;;;;7.38;100.00;97158.37;109295;1252;58981;-79
2024/02/12 04:30:29;;;;;;;2.90;2.00;;;;;;;7.39;100.00;97159.58;109412;1252;66835;-79
2024/02/12 04:32:59;;;;;;;3.60;2.10;;;;;;;7.39;100.00;97162.86;109395;1252;60303;-78
2024/02/12 04:35:25;;;;;;;2.10;1.90;;;;;;;7.41;100.00;97165.94;109400;1252;65154;-79
2024/02/12 04:37:54;;;;;;;2.00;1.80;;;;;;;7.41;100.00;97165.36;109382;1252;59046;-78
2024/02/12 04:40:24;;;;;;;2.20;2.00;;;;;;;7.42;100.00;97169.73;109388;1252;59007;-77
2024/02/12 04:42:54;;;;;;;2.00;1.60;;;;;;;7.42;100.00;97170.77;109353;1252;67026;-79
2024/02/12 04:45:21;;;;;;;1.80;1.70;;;;;;;7.42;100.00;97168.63;109413;1252;60064;-78
2024/02/12 04:47:50;;;;;;;2.30;1.80;;;;;;;7.42;100.00;97170.60;109359;1252;65067;-77
2024/02/12 04:50:17;;;;;;;2.00;1.80;;;;;;;7.42;100.00;97172.55;109386;1252;58976;-79
2024/02/12 04:52:44;;;;;;;2.10;1.60;;;;;;;7.42;100.00;97171.65;109389;1252;59102;-78
2024/02/12 04:55:11;;;;;;;3.30;1.80;;;;;;;7.42;100.00;97173.77;109415;1252;67371;-80
2024/02/12 04:57:39;;;;;;;3.80;2.00;;;;;;;7.41;100.00;97175.04;109428;1252;61159;-79
2024/02/12 05:00:10;;;;;;;2.80;2.20;;;;;;;7.42;100.00;97176.23;109346;1252;64010;-79
2024/02/12 05:02:38;;;;;;;2.60;2.30;;;;;;;7.43;100.00;97176.48;109373;1252;59007;-81
2024/02/12 05:05:06;;;;;;;4.10;2.60;;;;;;;7.43;100.00;97178.95;109387;1252;59014;-78
2024/02/12 05:07:33;;;;;;;2.80;2.10;;;;;;;7.44;100.00;97178.95;109384;1252;67027;-79
2024/02/12 05:09:59;;;;;;;2.50;2.00;;;;;;;7.43;100.00;97184.44;109367;1252;60017;-78
2024/02/12 05:12:28;;;;;;;4.20;2.40;;;;;;;7.44;100.00;97184.77;109408;1252;72697;-78
2024/02/12 05:14:56;;;;;;;3.00;2.70;;;;;;;7.44;100.00;97185.27;109360;1254;59159;-78
2024/02/12 05:17:41;;;;;;;3.10;2.30;;;;;;;7.44;100.00;97188.27;109361;1252;59238;-78
2024/02/12 05:22:54;;;;;;;3.70;2.80;;;;;;;7.45;100.00;97196.30;109373;1254;61137;-79
2024/02/12 05:25:20;;;;;;;3.30;2.60;;;;;;;7.46;100.00;97196.62;109394;1252;65052;-80
2024/02/12 05:27:47;;;;;;;3.90;2.60;;;;;;;7.46;100.00;97199.97;109408;1252;58991;-79
2024/02/12 05:30:14;;;;;;;4.80;2.70;;;;;;;7.46;100.00;97199.80;109377;1252;59037;-78
2024/02/12 05:32:40;;;;;;;5.50;3.50;;;;;;;7.45;100.00;97204.61;109357;1252;67056;-78
2024/02/12 05:35:09;;;;;;;5.40;3.10;;;;;;;7.45;100.00;97205.17;109411;1252;61304;-78
2024/02/12 05:37:36;;;;;;;3.50;2.60;;;;;;;7.45;100.00;97208.48;109344;1252;65353;-77
2024/02/12 05:40:03;;;;;;;3.90;2.60;;;;;;;7.46;100.00;97208.59;109121;1252;59071;-78
2024/02/12 05:42:30;;;;;;;3.20;2.50;;;;;;;7.47;100.00;97212.08;109382;1252;59119;-79
2024/02/12 05:44:56;;;;;;;3.10;2.80;;;;;;;7.47;100.00;97213.66;109132;1252;67201;-78
2024/02/12 05:47:23;;;;;;;2.30;2.10;;;;;;;7.46;100.00;97220.08;109397;1252;60145;-79
2024/02/12 05:49:49;;;;;;;2.00;1.90;;;;;;;7.46;100.00;97216.23;109370;1252;63996;-79
2024/02/12 05:52:16;;;;;;;2.50;2.10;;;;;;;7.46;100.00;97220.11;109382;1252;58956;-79
2024/02/12 05:54:43;;;;;;;1.90;1.70;;;;;;;7.46;100.00;97223.23;109373;1252;59252;-78
2024/02/12 05:57:10;;;;;;;2.20;2.00;;;;;;;7.46;100.00;97227.64;109404;1252;67031;-79
2024/02/12 05:59:37;;;;;;;2.10;1.90;;;;;;;7.46;100.00;97229.09;109249;1252;60737;-79
2024/02/12 06:02:04;;;;;;;2.00;1.90;;;;;;;7.46;100.00;97228.95;109407;1252;63987;-78
2024/02/12 06:04:31;;;;;;;2.60;2.20;;;;;;;7.45;100.00;97227.60;109411;1252;58967;-78
2024/02/12 06:06:58;;;;;;;2.70;2.30;;;;;;;7.44;100.00;97231.89;109381;1252;59044;-78
2024/02/12 06:09:27;;;;;;;3.40;2.50;;;;;;;7.45;100.00;97238.58;109427;1252;66723;-79
2024/02/12 06:11:53;;;;;;;3.90;3.20;;;;;;;7.45;100.00;97239.96;109141;1252;60202;-79
2024/02/12 06:14:21;;;;;;;3.10;2.80;;;;;;;7.46;100.00;97241.31;109418;1252;64054;-78
2024/02/12 06:16:48;;;;;;;4.00;3.00;;;;;;;7.46;100.00;97240.26;109442;1252;58997;-79
2024/02/12 06:19:15;;;;;;;3.90;3.50;;;;;;;7.46;100.00;97245.16;109431;1252;59292;-77
2024/02/12 06:21:45;;;;;;;3.90;3.30;;;;;;;7.47;100.00;97247.20;109406;1252;67044;-79
2024/02/12 06:24:13;;;;;;;6.60;3.10;;;;;;;7.47;100.00;97251.59;109344;1252;60865;-79
2024/02/12 06:26:39;;;;;;;3.70;3.00;;;;;;;7.49;100.00;97255.36;109408;1252;64305;-79
2024/02/12 06:29:07;;;;;;;4.30;3.20;;;;;;;7.51;100.00;97257.88;109110;1252;58995;-79
2024/02/12 06:31:42;;;;;;;3.20;2.90;;;;;;;7.53;100.00;97261.59;109405;1253;59057;-79
2024/02/12 06:34:10;;;;;;;4.40;3.30;;;;;;;7.55;100.00;97258.63;109359;1252;64738;-79
2024/02/12 06:36:37;;;;;;;3.70;3.40;;;;;;;7.56;100.00;97260.63;109415;1252;61059;-79
2024/02/12 06:39:05;;;;;;;3.50;2.80;;;;;;;7.58;100.00;97261.48;109396;1252;65145;-79
2024/02/12 06:41:32;;;;;;;3.40;2.80;;;;;;;7.61;100.00;97261.31;109365;1252;59066;-77
2024/02/12 06:43:59;;;;;;;3.50;3.20;;;;;;;7.63;100.00;97262.35;109445;1252;58940;-78
2024/02/12 06:46:26;;;;;;;4.00;3.00;;;;;;;7.65;100.00;97261.61;109377;1252;66815;-78
2024/02/12 06:48:53;;;;;;;4.10;3.10;;;;;;;7.68;100.00;97265.66;109466;1252;60022;-77
2024/02/12 06:51:19;;;;;;;3.40;3.00;;;;;;;7.70;100.00;97268.33;109411;1252;63819;-78
2024/02/12 06:53:46;;;;;;;3.20;2.70;;;;;;;7.73;100.00;97273.04;109375;1252;59351;-78
2024/02/12 06:56:14;;;;;;;3.00;2.40;;;;;;;7.76;100.00;97277.55;109419;1252;59034;-78
2024/02/12 06:58:42;;;;;;;3.50;2.80;;;;;;;7.78;100.00;97278.95;109443;1252;66024;-78
2024/02/12 07:01:12;;;;;;;4.00;2.60;;;;;;;7.81;100.00;97280.66;109147;1252;60140;-78
2024/02/12 07:03:39;;;;;;;3.50;2.90;;;;;;;7.84;100.00;97283.05;109142;1252;64108;-79
2024/02/12 07:06:06;;;;;;;3.20;2.40;;;;;;;7.87;100.00;97285.85;109107;1256;59020;-78
2024/02/12 07:08:33;;;;;;;5.60;3.20;;;;;;;7.88;100.00;97286.09;109447;1252;58882;-77
2024/02/12 07:11:00;;;;;;;3.40;2.90;;;;;;;7.90;100.00;97287.44;109410;1252;66990;-78
2024/02/12 07:13:27;;;;;;;3.30;2.50;;;;;;;7.93;100.00;97286.90;109136;1252;60071;-77
2024/02/12 07:15:53;;;;;;;3.40;2.60;;;;;;;7.96;100.00;97290.21;109410;1252;65278;-78
2024/02/12 07:18:20;;;;;;;2.70;2.30;;;;;;;7.98;100.00;97289.52;109391;1252;59473;-78
2024/02/12 07:20:46;;;;;;;4.20;2.60;;;;;;;8.00;100.00;97292.14;109436;1252;59200;-77
2024/02/12 07:23:13;;;;;;;2.90;2.40;;;;;;;8.03;100.00;97292.81;109412;1252;66099;-79
2024/02/12 07:25:40;;;;;;;4.60;2.40;;;;;;;8.07;100.00;97296.38;109288;1253;61086;-78
2024/02/12 07:28:08;;;;;;;3.40;2.60;;;;;;;8.09;100.00;97299.53;109437;1252;65031;-78
2024/02/12 07:30:34;;;;;;;2.20;2.00;;;;;;;8.11;100.00;97300.41;109426;1252;59014;-78
2024/02/12 07:33:02;;;;;;;4.00;3.10;;;;;;;8.13;100.00;97300.95;109423;1252;59274;-78
2024/02/12 07:35:29;;;;;;;3.80;2.30;;;;;;;8.16;100.00;97304.96;109251;1252;67160;-79
2024/02/12 07:37:58;;;;;;;4.70;3.10;;;;;;;8.18;100.00;97306.77;109396;1252;61464;-77
2024/02/12 07:40:24;;;;;;;2.30;2.10;;;;;;;8.20;100.00;97313.45;109172;1254;65094;-78
2024/02/12 07:42:52;;;;;;;3.70;3.10;;;;;;;8.23;100.00;97313.08;109343;1254;59328;-77
2024/02/12 07:45:19;;;;;;;3.60;2.90;;;;;;;8.26;100.00;97315.82;109444;1253;58260;-78
2024/02/12 07:47:46;;;;;;;4.50;3.20;;;;;;;8.29;100.00;97315.54;109299;1254;65740;-79
2024/02/12 07:50:13;;;;;;;4.40;3.00;;;;;;;8.31;100.00;97322.59;109162;1254;60407;-79
2024/02/12 07:52:40;;;;;;;2.60;2.30;;;;;;;8.33;100.00;97323.66;109325;1254;64077;-81
2024/02/12 07:55:10;;;;;;;4.00;3.50;;;;;;;8.35;100.00;97324.73;109286;1254;59029;-78
2024/02/12 07:57:37;;;;;;;;;;;;;;;8.37;100.00;97328.32;109309;1253;58974;-78
2024/02/12 08:00:07;;;;;;;3.30;2.80;;;;;;;8.38;100.00;97328.11;109277;1253;67223;-78
2024/02/12 08:02:35;;;;;;;3.80;3.30;;;;;;;8.41;100.00;97332.85;109269;1253;60793;-78
2024/02/12 08:05:04;;;;;;;3.10;2.90;;;;;;;8.41;100.00;97334.39;109326;1254;65083;-79
2024/02/12 08:07:32;;;;;;;3.80;2.70;;;;;;;8.41;100.00;97335.48;109296;1254;58953;-78
2024/02/12 08:10:00;;;;;;;3.30;3.00;;;;;;;8.40;100.00;97334.82;109341;1254;58976;-78
2024/02/12 08:12:26;;;;;;;3.80;3.20;;;;;;;8.40;100.00;97335.00;109310;1254;67099;-78
2024/02/12 08:14:53;;;;;;;6.00;3.90;;;;;;;8.42;100.00;97333.06;109294;1254;60315;-77
2024/02/12 08:17:19;;;;;;;3.70;2.90;;;;;;;8.45;100.00;97339.23;109294;1254;64140;-79
2024/02/12 08:19:46;;;;;;;3.10;2.80;;;;;;;8.46;100.00;97344.41;109298;1253;58970;-79
2024/02/12 08:22:13;;;;;;;3.70;2.80;;;;;;;8.46;100.00;97344.77;109290;1254;59174;-80
2024/02/12 08:24:40;;;;;;;3.70;2.80;;;;;;;8.46;100.00;97342.05;109262;1254;66924;-79
2024/02/12 08:27:07;;;;;;;4.20;3.20;;;;;;;8.49;100.00;97344.13;109280;1254;60230;-80
2024/02/12 08:29:33;;;;;;;2.80;2.60;;;;;;;8.53;100.00;97346.30;109288;1254;65283;-77
2024/02/12 08:32:00;;;;;;;2.80;2.30;;;;;;;8.56;100.00;97346.58;109286;1253;59080;-77
2024/02/12 08:34:28;;;;;;;2.90;2.60;;;;;;;8.59;100.00;97348.95;109283;1257;58986;-78
2024/02/12 08:36:55;;;;;;;3.30;2.70;;;;;;;8.64;100.00;97354.02;109176;1254;67117;-78
2024/02/12 08:39:21;;;;;;;3.70;2.60;;;;;;;8.69;100.00;97354.86;109285;1254;61146;-77
2024/02/12 08:41:48;;;;;;;3.40;3.00;;;;;;;8.73;100.00;97357.80;109309;1254;64521;-78
2024/02/12 08:44:16;;;;;;;3.20;2.70;;;;;;;8.76;100.00;97363.30;109264;1254;59982;-76
2024/02/12 08:46:44;;;;;;;3.30;3.00;;;;;;;8.81;100.00;97363.71;109270;1254;59071;-80
2024/02/12 08:49:11;;;;;;;4.10;3.20;;;;;;;8.87;100.00;97365.02;109276;1255;66322;-78
2024/02/12 08:51:38;;;;;;;3.90;3.30;;;;;;;8.91;100.00;97370.54;109294;1254;60120;-76
2024/02/12 08:54:04;;;;;;;3.60;3.00;;;;;;;8.93;100.00;97375.27;109279;1253;64178;-77
2024/02/12 08:56:33;;;;;;;4.10;3.40;;;;;;;8.97;100.00;97378.81;109238;1254;59103;-78
2024/02/12 08:59:00;;;;;;;3.40;2.70;;;;;;;9.00;100.00;97381.69;109053;1254;59065;-78
2024/02/12 09:01:27;;;;;;;4.00;3.60;;;;;;;9.03;100.00;97381.19;109270;1255;65729;-77
2024/02/12 09:03:56;;;;;;;5.80;3.80;;;;;;;9.01;100.00;97386.42;109187;1254;61013;-77
2024/02/12 09:06:22;;;;;;;4.30;3.20;;;;;;;9.03;100.00;97390.52;109274;1254;65100;-79
2024/02/12 09:08:49;;;;;;;4.60;3.40;;;;;;;9.01;100.00;97394.92;109188;1257;59069;-78
2024/02/12 09:11:16;;;;;;;4.60;4.00;;;;;;;9.00;100.00;97402.80;109265;1254;58999;-77
2024/02/12 09:13:43;;;;;;;6.00;3.90;;;;;;;8.99;100.00;97407.52;109298;1254;67208;-78
2024/02/12 09:16:10;;;;;;;5.00;3.50;;;;;;;8.97;100.00;97411.42;109250;1253;59959;-78
2024/02/12 09:18:37;;;;;;;4.20;3.60;;;;;;;8.97;100.00;97405.05;109238;1254;65122;-77
2024/02/12 09:21:05;;;;;;;4.40;3.90;;;;;;;8.97;100.00;97410.89;109240;1253;59089;-78
2024/02/12 09:23:32;;;;;;;4.80;4.00;;;;;;;8.99;100.00;97410.17;109242;1254;58940;-79
2024/02/12 09:25:59;;;;;;;4.90;3.50;;;;;;;9.06;100.00;97411.70;109258;1254;66023;-77
2024/02/12 09:28:27;;;;;;;4.20;3.60;;;;;;;9.16;100.00;97412.95;109229;1254;59053;-79
2024/02/12 09:30:54;;;;;;;4.10;3.70;;;;;;;9.28;100.00;97412.63;109244;1253;65763;-79
2024/02/12 09:33:21;;;;;;;4.70;3.70;;;;;;;9.38;100.00;97414.95;109279;1254;59008;-76
2024/02/12 09:35:47;;;;;;;6.50;4.20;;;;;;;9.45;100.00;97415.73;109270;1254;58889;-76
2024/02/12 09:38:15;;;;;;;5.50;3.90;;;;;;;9.53;100.00;97416.29;109225;1254;66125;-76
2024/02/12 09:40:42;;;;;;;4.20;3.50;;;;;;;9.58;100.00;97418.84;109259;1253;59773;-75
2024/02/12 09:43:11;;;;;;;4.10;3.10;;;;;;;9.60;100.00;97425.40;109267;1254;64502;-76
2024/02/12 09:45:45;;;;;;;4.30;3.20;;;;;;;9.63;100.00;97427.48;109236;1254;59067;-86
2024/02/12 09:48:13;;;;;;;4.90;3.90;;;;;;;9.72;100.00;97429.54;109215;1254;58975;-77
2024/02/12 09:50:44;;;;;;;4.70;4.20;;;;;;;9.79;100.00;97431.39;109291;1253;65884;-75
2024/02/12 09:53:19;;;;;;;5.40;3.60;;;;;;;9.87;100.00;97435.50;109308;1254;60739;-75
2024/02/12 09:55:47;;;;;;;7.00;4.30;;;;;;;9.94;100.00;97438.55;109259;1253;64419;-74
2024/02/12 09:58:18;;;;;;;6.60;4.30;;;;;;;10.04;100.00;97441.73;109034;1254;58997;-75
2024/02/12 10:00:46;;;;;;;5.90;3.80;;;;;;;10.16;100.00;97444.71;109270;1253;58911;-74
2024/02/12 10:03:13;;;;;;;5.90;4.00;;;;;;;10.28;100.00;97443.12;109318;1254;66039;-74
2024/02/12 10:05:41;;;;;;;4.00;3.70;;;;;;;10.37;100.00;97444.83;109283;1253;61080;-74
2024/02/12 10:08:20;;;;;;;5.50;4.00;;;;;;;10.40;100.00;97445.50;109254;1254;64048;-73
2024/02/12 10:10:48;;;;;;;4.60;3.80;;;;;;;10.48;100.00;97442.78;109170;1254;59158;-75
2024/02/12 10:13:15;;;;;;;6.70;4.90;;;;;;;10.62;100.00;97442.16;109252;1253;58998;-74
2024/02/12 10:15:43;;;;;;;4.90;3.80;;;;;;;10.75;100.00;97446.66;109325;1256;64750;-75
2024/02/12 10:18:12;;;;;;;5.60;3.70;;;;;;;10.80;100.00;97444.58;109254;1255;61142;-75
2024/02/12 10:20:39;;;;;;;5.20;3.60;;;;;;;10.84;100.00;97445.13;109249;1254;64947;-74
2024/02/12 10:23:09;;;;;;;4.50;3.40;;;;;;;10.95;100.00;97442.86;109253;1253;59344;-75
2024/02/12 10:25:40;;;;;;;4.40;3.50;;;;;;;11.03;100.00;97445.17;109219;1254;59865;-75
2024/02/12 10:28:07;;;;;;;6.70;3.70;;;;;;;11.03;100.00;97447.43;109201;1254;66978;-76
2024/02/12 10:30:34;;;;;;;4.90;3.60;;;;;;;11.00;100.00;97447.72;109285;1254;60101;-74
2024/02/12 10:33:06;;;;;;;7.50;3.70;;;;;;;10.98;100.00;97444.14;109245;1253;65220;-76
2024/02/12 10:35:41;;;;;;;3.90;3.30;;;;;;;11.02;100.00;97442.74;109222;1255;59067;-73
2024/02/12 10:38:10;;;;;;;5.90;4.30;;;;;;;11.07;100.00;97445.17;109294;1253;59025;-74
2024/02/12 10:41:15;;;;;;;4.80;3.80;;;;;;;11.08;100.00;97443.23;109254;1254;67427;-73
2024/02/12 10:43:43;;;;;;;3.80;3.00;;;;;;;11.13;100.00;97445.82;108881;1260;60040;-76
2024/02/12 10:46:12;;;;;;;6.50;4.20;;;;;;;11.15;100.00;97449.91;108853;1260;64051;-74
2024/02/12 10:48:42;;;;;;;5.50;3.70;;;;;;;11.16;100.00;97448.36;108832;1261;59075;-74
2024/02/12 10:51:10;;;;;;;3.80;3.30;;;;;;;11.21;100.00;97452.50;108828;1261;59089;-76
2024/02/12 10:53:39;;;;;;;4.30;3.00;;;;;;;11.31;100.00;97454.43;108817;1260;67096;-74
2024/02/12 10:56:07;;;;;;;3.60;3.00;;;;;;;11.40;100.00;97452.86;108872;1260;61138;-74
2024/02/12 10:58:35;;;;;;;5.30;3.40;;;;;;;11.53;100.00;97451.77;108832;1261;65232;-75
2024/02/12 11:01:02;;;;;;;3.90;2.90;;;;;;;11.59;100.00;97447.61;108823;1261;59100;-75
2024/02/12 11:03:36;;;;;;;3.80;3.30;;;;;;;11.59;100.00;97453.48;108904;1260;59044;-74
2024/02/12 11:06:08;;;;;;;4.60;3.10;;;;;;;11.52;100.00;97452.45;108856;1260;65865;-74
2024/02/12 11:08:42;;;;;;;4.50;3.20;;;;;;;11.49;100.00;97449.18;108813;1261;61077;-74
2024/02/12 11:11:19;;;;;;;3.90;3.30;;;;;;;11.54;100.00;97450.27;108854;1260;63713;-75
2024/02/12 11:14:00;;;;;;;3.70;3.40;;;;;;;11.70;100.00;97448.25;108829;1260;59134;-74
2024/02/12 11:16:31;;;;;;;4.30;3.30;;;;;;;11.80;100.00;97446.17;108813;1260;59546;-74
2024/02/12 11:19:00;;;;;;;4.00;3.30;;;;;;;11.85;100.00;97450.52;108844;1260;65936;-73
2024/02/12 11:21:35;;;;;;;5.30;3.10;;;;;;;11.90;100.00;97450.60;109297;1252;60078;-74
2024/02/12 11:24:12;;;;;;;4.30;3.80;;;;;;;11.84;100.00;97452.38;109415;1252;64181;-77
2024/02/12 11:26:49;;;;;;;4.00;3.40;;;;;;;11.73;100.00;97455.93;109209;1252;59037;-75
2024/02/12 11:29:17;;;;;;;4.50;3.30;;;;;;;11.61;100.00;97454.60;109461;1252;59739;-74
2024/02/12 11:31:44;;;;;;;5.20;3.90;;;;;;;11.55;100.00;97456.27;109468;1252;67231;-74
2024/02/12 11:34:18;;;;;;;4.90;3.40;;;;;;;11.51;100.00;97454.29;109455;1252;60168;-75
2024/02/12 11:36:58;;;;;;;4.40;3.60;;;;;;;11.54;100.00;97450.65;109355;1252;148815;-79
2024/02/12 11:39:25;;;;;;;;;;;;;;;11.61;100.00;97450.25;109257;1252;59329;-75
2024/02/12 11:41:52;;;;;;;5.80;4.50;;;;;;;11.67;100.00;97451.13;109469;1252;59148;-75